Time;durP1;ratioP1;P1;durP2;ratioP2;P2;SDS_P1;SDS_P2;PMS_P1;PMS_P2;Temp;Humidity;BMP_temperature;BMP_pressure;BME280_temperature;BME280_humidity;BME280_pressure;Samples;Min_cycle;Max_cycle;Signal;HPM_P1;HPM_P2
2023/12/01 00:00:28;;;;;;;0.20;0.20;;;;;;;3.00;70.24;100554.78;5090054;28;20422;-82
2023/12/01 00:02:54;;;;;;;0.20;0.20;;;;;;;3.01;70.64;100559.13;5086509;28;20483;-82
2023/12/01 00:05:20;;;;;;;0.30;0.30;;;;;;;3.00;70.32;100566.09;5086097;28;20453;-82
2023/12/01 00:07:46;;;;;;;0.60;0.60;;;;;;;3.00;70.29;100567.84;5083663;28;20032;-82
2023/12/01 00:10:13;;;;;;;1.00;0.70;;;;;;;2.95;70.53;100577.41;5089075;28;21018;-82
2023/12/01 00:12:39;;;;;;;0.28;0.28;;;;;;;2.97;70.22;100580.94;5087504;28;20032;-82
2023/12/01 00:15:06;;;;;;;0.20;0.20;;;;;;;2.93;70.02;100574.81;5088094;28;20100;-82
2023/12/01 00:17:32;;;;;;;1.77;1.67;;;;;;;2.93;69.81;100577.41;5087093;28;20021;-82
2023/12/01 00:19:59;;;;;;;1.40;1.10;;;;;;;2.87;70.01;100575.63;5090429;28;20032;-82
2023/12/01 00:22:25;;;;;;;5.63;3.47;;;;;;;2.78;69.92;100586.03;5087658;28;20023;-82
2023/12/01 00:24:51;;;;;;;0.85;0.85;;;;;;;2.74;70.10;100592.09;5084647;28;20517;-82
2023/12/01 00:27:17;;;;;;;0.22;0.22;;;;;;;2.74;69.94;100587.75;5082548;28;20036;-82
2023/12/01 00:29:44;;;;;;;0.20;0.20;;;;;;;2.69;69.71;100591.16;5089846;28;20024;-82
2023/12/01 00:32:10;;;;;;;0.20;0.20;;;;;;;2.66;69.67;100597.25;5092247;28;20085;-82
2023/12/01 00:34:36;;;;;;;0.65;0.65;;;;;;;2.65;69.76;100597.25;5088622;28;20047;-82
2023/12/01 00:37:03;;;;;;;0.30;0.30;;;;;;;2.55;69.62;100604.13;5088463;28;20052;-82
2023/12/01 00:39:29;;;;;;;0.20;0.20;;;;;;;2.57;69.97;100603.28;5086586;28;20032;-82
2023/12/01 00:41:55;;;;;;;0.30;0.30;;;;;;;2.57;69.97;100608.50;5088144;28;20024;-82
2023/12/01 00:44:21;;;;;;;0.90;0.90;;;;;;;2.61;70.14;100605.94;5087266;28;20028;-82
2023/12/01 00:46:47;;;;;;;0.65;0.65;;;;;;;2.55;70.07;100615.47;5087254;28;20036;-82
2023/12/01 00:49:14;;;;;;;0.22;0.22;;;;;;;2.62;70.44;100623.38;5091976;28;20042;-83
2023/12/01 00:51:41;;;;;;;0.40;0.40;;;;;;;2.62;70.47;100616.41;5094156;28;20037;-82
2023/12/01 00:54:08;;;;;;;0.30;0.30;;;;;;;2.62;70.44;100615.53;5095984;28;20058;-83
2023/12/01 00:56:34;;;;;;;0.40;0.40;;;;;;;2.68;70.32;100626.03;5089704;28;20176;-82
2023/12/01 00:59:00;;;;;;;0.20;0.20;;;;;;;2.70;70.33;100621.72;5092127;28;20486;-82
2023/12/01 01:01:27;;;;;;;0.82;0.82;;;;;;;2.72;70.61;100617.38;5089725;28;20115;-82
2023/12/01 01:03:53;;;;;;;0.20;0.20;;;;;;;2.76;70.27;100634.84;5089659;28;20028;-82
2023/12/01 01:06:19;;;;;;;3.63;1.45;;;;;;;2.72;70.55;100625.22;5091398;28;20039;-82
2023/12/01 01:08:45;;;;;;;0.20;0.20;;;;;;;2.74;70.42;100616.53;5093237;28;20050;-82
2023/12/01 01:11:11;;;;;;;0.20;0.20;;;;;;;2.75;70.10;100630.47;5090275;28;20069;-82
2023/12/01 01:13:37;;;;;;;0.47;0.47;;;;;;;2.67;70.29;100643.47;5091291;28;20032;-82
2023/12/01 01:16:04;;;;;;;0.30;0.30;;;;;;;2.68;70.27;100646.97;5090818;28;20591;-83
2023/12/01 01:18:30;;;;;;;0.20;0.20;;;;;;;2.67;70.36;100642.63;5092154;28;20024;-82
2023/12/01 01:20:56;;;;;;;0.20;0.20;;;;;;;2.64;70.08;100643.47;5093094;28;20047;-82
2023/12/01 01:23:22;;;;;;;0.20;0.20;;;;;;;2.66;70.39;100638.25;5090696;28;20084;-83
2023/12/01 01:25:49;;;;;;;0.65;0.65;;;;;;;2.67;70.46;100645.25;5092833;28;20054;-82
2023/12/01 01:28:15;;;;;;;0.75;0.75;;;;;;;2.70;70.17;100645.25;5086157;28;20032;-82
2023/12/01 01:30:41;;;;;;;0.20;0.20;;;;;;;2.65;70.17;100646.94;5093301;28;20028;-81
2023/12/01 01:33:08;;;;;;;0.20;0.20;;;;;;;2.63;70.30;100646.06;5100382;28;20032;-82
2023/12/01 01:35:34;;;;;;;0.20;0.20;;;;;;;2.67;70.52;100660.94;5097847;28;20408;-82
2023/12/01 01:38:00;;;;;;;0.45;0.45;;;;;;;2.68;70.11;100652.19;5092233;28;20028;-81
2023/12/01 01:40:26;;;;;;;0.28;0.28;;;;;;;2.64;70.34;100650.44;5088479;28;20498;-82
2023/12/01 01:42:52;;;;;;;0.43;0.43;;;;;;;2.61;70.39;100653.88;5090964;28;20029;-82
2023/12/01 01:45:19;;;;;;;0.68;0.68;;;;;;;2.61;70.32;100645.19;5089357;28;20508;-82
2023/12/01 01:47:46;;;;;;;0.65;0.65;;;;;;;2.66;70.04;100646.97;5092045;28;20094;-82
2023/12/01 01:50:12;;;;;;;0.30;0.30;;;;;;;2.64;70.15;100658.28;5091079;28;20042;-83
2023/12/01 01:52:41;;;;;;;0.20;0.20;;;;;;;2.71;70.25;100665.31;5084104;28;20029;-82
2023/12/01 01:55:09;;;;;;;0.20;0.20;;;;;;;2.72;70.55;100660.09;5089771;28;20517;-82
2023/12/01 01:57:38;;;;;;;0.30;0.30;;;;;;;2.79;70.27;100665.38;5088496;28;20032;-83
2023/12/01 02:00:06;;;;;;;0.20;0.20;;;;;;;2.77;70.52;100662.75;5085648;28;20028;-82
2023/12/01 02:02:35;;;;;;;2.78;2.42;;;;;;;2.80;70.64;100670.63;5083468;28;20100;-82
2023/12/01 02:05:01;;;;;;;0.50;0.50;;;;;;;2.85;70.54;100675.91;5085289;28;20032;-82
2023/12/01 02:07:28;;;;;;;0.20;0.20;;;;;;;2.84;70.50;100680.28;5081206;28;20035;-82
2023/12/01 02:09:54;;;;;;;0.20;0.20;;;;;;;2.83;70.57;100678.53;5082612;28;20036;-82
2023/12/01 02:12:20;;;;;;;0.20;0.20;;;;;;;2.76;70.19;100676.72;5081252;28;20032;-82
2023/12/01 02:14:47;;;;;;;0.20;0.20;;;;;;;2.76;70.08;100681.94;5082881;28;20039;-82
2023/12/01 02:17:13;;;;;;;0.20;0.20;;;;;;;2.70;70.49;100682.75;5081819;28;20119;-82
2023/12/01 02:19:39;;;;;;;0.20;0.20;;;;;;;2.69;70.21;100681.00;5092447;28;20054;-82
2023/12/01 02:22:05;;;;;;;0.68;0.65;;;;;;;2.72;70.55;100674.94;5097143;28;20036;-82
2023/12/01 02:24:32;;;;;;;0.20;0.20;;;;;;;2.66;69.86;100674.88;5089526;28;20119;-82
2023/12/01 02:26:58;;;;;;;0.40;0.40;;;;;;;2.72;69.95;100678.41;5079775;28;20120;-82
2023/12/01 02:29:24;;;;;;;0.20;0.20;;;;;;;2.73;70.34;100687.16;5080575;28;20033;-82
2023/12/01 02:31:50;;;;;;;0.20;0.20;;;;;;;2.74;69.98;100678.41;5081835;28;20059;-82
2023/12/01 02:34:21;;;;;;;0.30;0.30;;;;;;;2.70;70.07;100682.75;5084166;28;20032;-82
2023/12/01 02:36:47;;;;;;;0.20;0.20;;;;;;;2.69;70.23;100680.13;5080775;28;20039;-83
2023/12/01 02:39:13;;;;;;;0.30;0.30;;;;;;;2.67;69.88;100680.13;5084584;28;20071;-82
2023/12/01 02:41:39;;;;;;;1.10;1.10;;;;;;;2.68;69.81;100679.25;5080118;28;20029;-83
2023/12/01 02:44:05;;;;;;;0.20;0.20;;;;;;;2.64;69.34;100682.72;5085190;28;20095;-81
2023/12/01 02:46:32;;;;;;;1.95;1.85;;;;;;;2.65;69.46;100686.19;5087100;28;20037;-82
2023/12/01 02:48:58;;;;;;;1.42;1.42;;;;;;;2.65;69.50;100686.19;5089371;28;20028;-82
2023/12/01 02:51:24;;;;;;;0.20;0.20;;;;;;;2.66;69.36;100680.09;5093502;28;20036;-82
2023/12/01 02:53:50;;;;;;;0.40;0.40;;;;;;;2.66;69.93;100680.09;5085551;28;20033;-82
2023/12/01 02:56:16;;;;;;;0.20;0.20;;;;;;;2.64;69.88;100680.09;5082658;28;20025;-82
2023/12/01 02:58:43;;;;;;;0.45;0.45;;;;;;;2.66;69.96;100682.72;5081990;28;20525;-83
2023/12/01 03:01:09;;;;;;;0.57;0.57;;;;;;;2.64;69.75;100684.44;5085999;28;20036;-83
2023/12/01 03:03:35;;;;;;;0.30;0.30;;;;;;;2.67;69.87;100676.63;5087899;28;20040;-82
2023/12/01 03:06:01;;;;;;;0.20;0.20;;;;;;;2.67;69.83;100674.00;5087016;28;20046;-82
2023/12/01 03:08:27;;;;;;;0.20;0.20;;;;;;;2.71;70.10;100678.41;5083391;28;20062;-81
2023/12/01 03:10:54;;;;;;;0.20;0.20;;;;;;;2.73;70.33;100681.94;5080355;28;20044;-82
2023/12/01 03:13:21;;;;;;;0.20;0.20;;;;;;;2.70;70.10;100676.66;5078485;28;20372;-81
2023/12/01 03:15:47;;;;;;;0.50;0.50;;;;;;;2.72;69.81;100674.94;5083191;28;20028;-82
2023/12/01 03:18:13;;;;;;;0.30;0.30;;;;;;;2.63;69.43;100673.09;5085574;28;20047;-82
2023/12/01 03:20:39;;;;;;;0.20;0.20;;;;;;;2.65;69.40;100676.59;5088649;28;20096;-81
2023/12/01 03:23:05;;;;;;;0.20;0.20;;;;;;;2.64;69.82;100676.59;5088548;28;20146;-81
2023/12/01 03:25:33;;;;;;;0.20;0.20;;;;;;;2.57;69.52;100673.91;5081477;28;20515;-81
2023/12/01 03:27:59;;;;;;;0.45;0.45;;;;;;;2.53;69.35;100685.22;5085633;28;20029;-81
2023/12/01 03:30:25;;;;;;;0.20;0.20;;;;;;;2.53;69.52;100685.22;5087476;28;20059;-81
2023/12/01 03:32:53;;;;;;;0.20;0.20;;;;;;;2.47;69.51;100687.75;5080961;28;20492;-81
2023/12/01 03:35:23;;;;;;;0.30;0.30;;;;;;;2.53;69.53;100679.97;5078234;28;20059;-82
2023/12/01 03:37:56;;;;;;;0.57;0.57;;;;;;;2.55;69.64;100688.69;5078890;28;20488;-83
2023/12/01 03:40:23;;;;;;;0.25;0.25;;;;;;;2.54;69.58;100694.81;5076657;28;20040;-82
2023/12/01 03:42:50;;;;;;;0.20;0.20;;;;;;;2.58;70.08;100688.75;5073728;28;20075;-82
2023/12/01 03:45:17;;;;;;;0.20;0.20;;;;;;;2.58;69.83;100696.59;5076580;28;20456;-82
2023/12/01 03:47:46;;;;;;;1.20;1.10;;;;;;;2.65;69.97;100699.28;5077371;28;20377;-82
2023/12/01 03:50:12;;;;;;;0.20;0.20;;;;;;;2.71;69.83;100694.09;5081444;28;20028;-81
2023/12/01 03:52:41;;;;;;;0.68;0.65;;;;;;;2.72;69.77;100693.25;5082244;28;20024;-82
2023/12/01 03:55:08;;;;;;;0.40;0.40;;;;;;;2.74;69.73;100699.34;5081007;28;20032;-81
2023/12/01 03:57:35;;;;;;;0.60;0.60;;;;;;;2.73;70.03;100708.09;5089007;28;20024;-82
2023/12/01 04:00:07;;;;;;;2.25;2.10;;;;;;;2.78;70.00;100711.63;5087428;28;20031;-82
2023/12/01 04:02:35;;;;;;;0.75;0.75;;;;;;;2.79;70.10;100708.16;5089622;28;20017;-82
2023/12/01 04:05:02;;;;;;;0.22;0.22;;;;;;;2.78;69.51;100706.38;5087254;28;20475;-82
2023/12/01 04:07:28;;;;;;;0.73;0.73;;;;;;;2.72;69.52;100707.19;5092617;28;20047;-81
2023/12/01 04:09:54;;;;;;;0.38;0.38;;;;;;;2.83;69.69;100711.66;5099507;28;20062;-81
2023/12/01 04:12:20;;;;;;;0.22;0.22;;;;;;;2.83;69.63;100709.91;5097074;28;20036;-81
2023/12/01 04:14:46;;;;;;;0.30;0.30;;;;;;;2.80;69.42;100714.25;5098531;28;20052;-81
2023/12/01 04:17:13;;;;;;;0.20;0.20;;;;;;;2.72;69.11;100722.88;5098362;28;20046;-83
2023/12/01 04:19:39;;;;;;;0.20;0.20;;;;;;;2.81;69.63;100727.34;5089113;28;20116;-83
2023/12/01 04:22:06;;;;;;;3.22;0.65;;;;;;;2.78;69.21;100722.09;5090016;28;20058;-82
2023/12/01 04:24:33;;;;;;;0.20;0.20;;;;;;;2.81;69.70;100727.34;5086042;28;20027;-82
2023/12/01 04:27:02;;;;;;;0.20;0.20;;;;;;;2.83;69.30;100730.84;5089126;28;20028;-83
2023/12/01 04:29:30;;;;;;;0.20;0.20;;;;;;;2.82;69.55;100723.88;5085278;28;20039;-82
2023/12/01 04:31:57;;;;;;;4.30;1.95;;;;;;;2.86;69.40;100730.88;5085864;28;20415;-82
2023/12/01 04:34:26;;;;;;;0.20;0.20;;;;;;;2.86;69.39;100740.47;5080955;28;20099;-83
2023/12/01 04:36:52;;;;;;;0.20;0.20;;;;;;;2.91;69.75;100737.03;5084784;28;20024;-82
2023/12/01 04:39:20;;;;;;;0.20;0.20;;;;;;;2.95;69.71;100744.91;5079825;28;20035;-82
2023/12/01 04:41:49;;;;;;;0.20;0.20;;;;;;;2.91;69.20;100742.25;5076669;28;20108;-83
2023/12/01 04:44:16;;;;;;;0.55;0.55;;;;;;;2.95;69.36;100744.91;5076770;28;20507;-82
2023/12/01 04:46:42;;;;;;;0.20;0.20;;;;;;;2.99;69.34;100746.69;5076441;28;20042;-83
2023/12/01 04:49:09;;;;;;;0.28;0.28;;;;;;;2.95;69.37;100750.16;5078231;28;20068;-82
2023/12/01 04:51:36;;;;;;;0.20;0.20;;;;;;;2.92;69.52;100751.88;5089327;28;20028;-82
2023/12/01 04:54:05;;;;;;;0.20;0.20;;;;;;;2.88;69.39;100751.84;5085465;28;20492;-82
2023/12/01 04:56:32;;;;;;;0.20;0.20;;;;;;;2.88;69.24;100760.56;5077216;28;20411;-82
2023/12/01 04:58:58;;;;;;;0.30;0.30;;;;;;;2.90;69.12;100765.81;5077610;28;20025;-82
2023/12/01 05:01:24;;;;;;;0.20;0.20;;;;;;;2.91;69.42;100749.25;5081663;28;20083;-82
2023/12/01 05:03:51;;;;;;;0.20;0.20;;;;;;;2.95;69.35;100755.38;5085358;28;20040;-82
2023/12/01 05:06:17;;;;;;;1.30;1.30;;;;;;;2.92;68.86;100762.34;5101258;28;20037;-82
2023/12/01 05:08:43;;;;;;;0.93;0.93;;;;;;;2.94;69.04;100754.53;5095157;28;20044;-82
2023/12/01 05:11:10;;;;;;;0.20;0.20;;;;;;;3.00;69.06;100764.16;5110762;28;20028;-83
2023/12/01 05:13:36;;;;;;;0.20;0.20;;;;;;;3.02;69.44;100762.44;5095011;28;20021;-82
2023/12/01 05:16:04;;;;;;;0.20;0.20;;;;;;;3.08;69.58;100759.88;5093802;28;20032;-82
2023/12/01 05:18:30;;;;;;;0.20;0.20;;;;;;;3.11;69.05;100759.03;5094330;28;20099;-82
2023/12/01 05:20:56;;;;;;;0.20;0.20;;;;;;;3.15;69.28;100763.44;5094864;28;20047;-83
2023/12/01 05:23:22;;;;;;;0.20;0.20;;;;;;;3.19;69.35;100770.44;5107785;28;20004;-82
2023/12/01 05:25:50;;;;;;;0.20;0.20;;;;;;;3.21;68.97;100764.34;5094734;28;20037;-82
2023/12/01 05:28:17;;;;;;;1.30;1.27;;;;;;;3.27;69.32;100767.91;5083383;28;20021;-83
2023/12/01 05:30:46;;;;;;;0.20;0.20;;;;;;;3.30;69.17;100757.44;5078683;28;20048;-83
2023/12/01 05:33:12;;;;;;;4.80;1.38;;;;;;;3.31;69.27;100765.31;5078366;28;20098;-83
2023/12/01 05:35:42;;;;;;;1.38;1.38;;;;;;;3.34;69.07;100773.22;5079574;28;20039;-82
2023/12/01 05:38:08;;;;;;;0.20;0.20;;;;;;;3.31;68.82;100762.69;5080747;28;20025;-82
2023/12/01 05:40:36;;;;;;;0.20;0.20;;;;;;;3.31;68.69;100772.31;5079099;28;20033;-82
2023/12/01 05:43:04;;;;;;;1.73;1.25;;;;;;;3.34;69.20;100772.31;5079268;28;20036;-83
2023/12/01 05:45:35;;;;;;;0.75;0.73;;;;;;;3.34;69.00;100772.31;5079768;28;20060;-82
2023/12/01 05:48:03;;;;;;;0.20;0.20;;;;;;;3.34;69.14;100781.06;5080339;28;20445;-82
2023/12/01 05:50:31;;;;;;;0.25;0.25;;;;;;;3.33;69.08;100779.31;5080498;28;21086;-82
2023/12/01 05:52:59;;;;;;;0.20;0.20;;;;;;;3.36;68.87;100778.44;5079533;28;20048;-83
2023/12/01 05:55:28;;;;;;;0.20;0.20;;;;;;;3.37;69.05;100775.84;5079310;28;20075;-82
2023/12/01 06:00:32;;;;;;;0.20;0.20;;;;;;;3.35;68.89;100795.91;5109275;27;20361;-83
2023/12/01 06:03:01;;;;;;;0.20;0.20;;;;;;;3.40;68.58;100798.56;5101968;28;20028;-82
2023/12/01 06:05:28;;;;;;;0.20;0.20;;;;;;;3.37;68.34;100796.78;5112670;28;20031;-84
2023/12/01 06:07:57;;;;;;;1.30;1.30;;;;;;;3.39;68.69;100800.31;5107482;28;20024;-84
2023/12/01 06:10:24;;;;;;;0.20;0.20;;;;;;;3.37;68.37;100799.41;5101441;28;20024;-84
2023/12/01 06:12:50;;;;;;;0.20;0.20;;;;;;;3.37;68.14;100801.16;5106434;28;20028;-83
2023/12/01 06:15:18;;;;;;;0.30;0.30;;;;;;;3.38;68.33;100811.66;5115430;28;20032;-82
2023/12/01 06:17:46;;;;;;;0.20;0.20;;;;;;;3.39;68.43;100807.31;5108488;28;20065;-85
2023/12/01 06:20:18;;;;;;;0.20;0.20;;;;;;;3.37;68.14;100806.41;5102457;28;20036;-80
2023/12/01 06:25:27;;;;;;;0.30;0.30;;;;;;;3.34;68.71;100806.34;5125485;27;20055;-81
2023/12/01 06:27:56;;;;;;;0.28;0.28;;;;;;;3.29;68.79;100813.28;5118494;28;20036;-81
2023/12/01 06:30:23;;;;;;;0.20;0.20;;;;;;;3.24;68.35;100816.75;5119782;28;20039;-83
2023/12/01 06:32:50;;;;;;;3.38;3.17;;;;;;;3.29;68.18;100819.44;5119060;28;20038;-81
2023/12/01 06:35:19;;;;;;;0.20;0.20;;;;;;;3.32;68.63;100818.59;5116438;28;20024;-83
2023/12/01 06:37:46;;;;;;;0.20;0.20;;;;;;;3.34;68.46;100816.84;5117003;28;20064;-82
2023/12/01 06:40:17;;;;;;;0.82;0.82;;;;;;;3.37;68.54;100815.13;5116008;28;20032;-82
2023/12/01 06:42:45;;;;;;;0.20;0.20;;;;;;;3.38;68.95;100810.78;5114655;28;20039;-83
2023/12/01 06:45:13;;;;;;;0.90;0.85;;;;;;;3.39;68.56;100816.03;5116002;28;20096;-83
2023/12/01 06:47:42;;;;;;;0.30;0.30;;;;;;;3.43;68.77;100808.19;5102606;28;20063;-82
2023/12/01 06:50:10;;;;;;;0.20;0.20;;;;;;;3.45;68.96;100815.22;5102977;28;20125;-82
2023/12/01 06:52:37;;;;;;;0.20;0.20;;;;;;;3.45;68.64;100811.69;5112595;28;20136;-83
2023/12/01 06:55:05;;;;;;;0.35;0.35;;;;;;;3.50;69.21;100816.13;5115176;28;20035;-84
2023/12/01 06:57:32;;;;;;;4.40;2.05;;;;;;;3.53;68.82;100817.91;5103021;28;20023;-83
2023/12/01 06:59:58;;;;;;;1.27;1.20;;;;;;;3.52;68.70;100822.25;5116389;28;20031;-82
2023/12/01 07:02:24;;;;;;;0.30;0.30;;;;;;;3.56;68.74;100829.28;5113361;28;20380;-82
2023/12/01 07:04:55;;;;;;;0.55;0.55;;;;;;;3.55;68.78;100826.63;5109279;28;20546;-83
2023/12/01 07:07:21;;;;;;;0.20;0.20;;;;;;;3.55;68.82;100827.53;5093656;28;20515;-83
2023/12/01 07:09:47;;;;;;;0.75;0.65;;;;;;;3.55;68.65;100824.00;5092402;28;20097;-83
2023/12/01 07:12:14;;;;;;;0.25;0.25;;;;;;;3.46;68.72;100835.28;5090428;28;20074;-82
2023/12/01 07:14:40;;;;;;;0.20;0.20;;;;;;;3.56;68.72;100838.88;5097780;28;20050;-83
2023/12/01 07:17:06;;;;;;;0.28;0.28;;;;;;;3.59;68.41;100843.25;5096174;28;20024;-83
2023/12/01 07:19:35;;;;;;;0.20;0.20;;;;;;;3.60;68.38;100845.00;5095044;28;20028;-82
2023/12/01 07:22:01;;;;;;;1.35;1.02;;;;;;;3.58;68.61;100846.72;5092865;28;20031;-83
2023/12/01 07:24:28;;;;;;;0.30;0.30;;;;;;;3.59;68.16;100843.25;5096972;28;20590;-82
2023/12/01 07:26:54;;;;;;;0.20;0.20;;;;;;;3.60;68.71;100843.28;5093760;28;20048;-83
2023/12/01 07:29:20;;;;;;;0.20;0.20;;;;;;;3.62;68.47;100848.53;5094186;28;20095;-82
2023/12/01 07:31:46;;;;;;;0.50;0.50;;;;;;;3.63;68.60;100848.53;5092632;28;20512;-82
2023/12/01 07:34:13;;;;;;;0.20;0.20;;;;;;;3.65;68.27;100851.16;5092762;28;20554;-84
2023/12/01 07:36:40;;;;;;;0.25;0.25;;;;;;;3.69;68.68;100850.34;5078645;28;20675;-84
2023/12/01 07:39:07;;;;;;;0.90;0.90;;;;;;;3.69;68.53;100850.34;5094606;28;20047;-83
2023/12/01 07:41:33;;;;;;;0.20;0.20;;;;;;;3.69;68.53;100855.59;5078495;28;20063;-83
2023/12/01 07:43:59;;;;;;;0.30;0.30;;;;;;;3.68;68.76;100853.81;5094329;28;20020;-82
2023/12/01 07:46:25;;;;;;;0.68;0.68;;;;;;;3.67;68.71;100862.53;5097682;28;20032;-80
2023/12/01 07:48:52;;;;;;;0.20;0.20;;;;;;;3.69;68.43;100860.81;5099834;28;20038;-80
2023/12/01 07:51:18;;;;;;;0.20;0.20;;;;;;;3.68;68.29;100859.06;5098520;28;20446;-80
2023/12/01 07:53:45;;;;;;;0.20;0.20;;;;;;;3.69;68.23;100856.47;5101101;28;20028;-81
2023/12/01 07:56:19;;;;;;;0.20;0.20;;;;;;;3.70;68.48;100862.56;5099479;28;20024;-81
2023/12/01 07:58:45;;;;;;;0.30;0.30;;;;;;;3.69;68.37;100861.69;5100312;28;20020;-80
2023/12/01 08:01:14;;;;;;;0.40;0.40;;;;;;;3.72;68.00;100861.69;5106161;28;20035;-82
2023/12/01 08:03:42;;;;;;;0.20;0.20;;;;;;;3.74;67.96;100866.97;5107846;28;20039;-81
2023/12/01 08:06:09;;;;;;;0.20;0.20;;;;;;;3.76;68.00;100869.59;5110176;28;20029;-82
2023/12/01 08:08:35;;;;;;;0.20;0.20;;;;;;;3.80;68.02;100877.53;5090017;28;20035;-82
2023/12/01 08:11:04;;;;;;;0.50;0.50;;;;;;;3.80;68.32;100880.13;5092264;28;20099;-83
2023/12/01 08:13:30;;;;;;;0.20;0.20;;;;;;;3.83;68.33;100869.66;5089229;28;20799;-83
2023/12/01 08:15:57;;;;;;;0.25;0.25;;;;;;;3.84;68.33;100878.44;5089198;28;20021;-81
2023/12/01 08:18:23;;;;;;;0.20;0.20;;;;;;;3.86;68.07;100874.06;5090602;28;20036;-83
2023/12/01 08:20:50;;;;;;;0.20;0.20;;;;;;;3.87;68.03;100876.69;5089497;28;20016;-84
2023/12/01 08:23:16;;;;;;;0.20;0.20;;;;;;;3.87;68.09;100867.94;5089213;28;20033;-84
2023/12/01 08:25:43;;;;;;;0.20;0.20;;;;;;;3.88;68.31;100874.97;5089718;28;20062;-84
2023/12/01 08:28:10;;;;;;;0.20;0.20;;;;;;;3.89;68.49;100880.19;5087760;28;20111;-83
2023/12/01 08:30:36;;;;;;;0.25;0.25;;;;;;;3.89;68.25;100880.19;5083203;28;20081;-82
2023/12/01 08:33:03;;;;;;;0.30;0.30;;;;;;;3.92;68.29;100883.72;5081217;28;20287;-83
2023/12/01 08:35:30;;;;;;;0.30;0.30;;;;;;;3.93;68.09;100880.25;5083126;28;20028;-82
2023/12/01 08:37:56;;;;;;;3.28;1.42;;;;;;;3.94;68.18;100882.88;5097937;28;20505;-83
2023/12/01 08:40:22;;;;;;;1.52;1.52;;;;;;;3.94;67.80;100888.09;5100122;28;20038;-83
2023/12/01 08:42:52;;;;;;;0.75;0.75;;;;;;;3.93;67.70;100893.34;5082916;28;20028;-82
2023/12/01 08:45:19;;;;;;;0.50;0.50;;;;;;;3.93;68.26;100895.97;5082637;28;20092;-82
2023/12/01 08:47:45;;;;;;;0.55;0.55;;;;;;;3.88;67.58;100894.16;5081322;28;20032;-82
2023/12/01 08:50:12;;;;;;;1.67;1.67;;;;;;;3.89;67.87;100890.69;5083513;28;20067;-83
2023/12/01 08:52:39;;;;;;;0.40;0.40;;;;;;;3.89;67.78;100900.31;5081811;28;20069;-83
2023/12/01 08:55:06;;;;;;;1.45;0.73;;;;;;;3.96;68.24;100898.59;5081430;28;20092;-81
2023/12/01 08:57:33;;;;;;;1.65;1.65;;;;;;;4.00;68.13;100897.75;5082759;28;20032;-83
2023/12/01 08:59:59;;;;;;;0.47;0.47;;;;;;;3.87;67.78;100902.03;5081214;28;20034;-83
2023/12/01 09:02:26;;;;;;;0.20;0.20;;;;;;;3.68;68.44;100901.84;5081062;28;20086;-83
2023/12/01 09:04:52;;;;;;;0.45;0.45;;;;;;;3.69;68.51;100902.75;5082638;28;20021;-83
2023/12/01 09:07:18;;;;;;;4.10;1.92;;;;;;;3.69;68.76;100897.50;5090185;28;20036;-83
2023/12/01 09:09:44;;;;;;;0.65;0.65;;;;;;;3.75;68.92;100905.44;5093186;28;20063;-83
2023/12/01 09:12:10;;;;;;;0.20;0.20;;;;;;;3.78;68.70;100913.31;5099825;28;20047;-83
2023/12/01 09:14:36;;;;;;;0.20;0.20;;;;;;;3.83;69.11;100916.84;5097499;28;20028;-84
2023/12/01 09:17:03;;;;;;;0.20;0.20;;;;;;;3.85;68.65;100915.13;5097148;28;20095;-82
2023/12/01 09:19:29;;;;;;;0.75;0.75;;;;;;;3.89;68.56;100922.13;5098276;28;20073;-82
2023/12/01 09:21:55;;;;;;;0.20;0.20;;;;;;;3.89;68.62;100919.53;5096404;28;20110;-84
2023/12/01 09:24:21;;;;;;;0.20;0.20;;;;;;;3.94;68.78;100924.81;5095839;28;20058;-83
2023/12/01 09:26:48;;;;;;;0.10;0.10;;;;;;;3.97;68.23;100924.81;5093551;28;20024;-83
2023/12/01 09:29:14;;;;;;;0.20;0.20;;;;;;;3.98;68.10;100925.72;5076400;28;20036;-84
2023/12/01 09:31:46;;;;;;;0.20;0.20;;;;;;;4.03;68.36;100929.25;5079125;28;20020;-85
2023/12/01 09:34:12;;;;;;;1.60;1.50;;;;;;;4.05;68.01;100927.53;5085445;28;20024;-85
2023/12/01 09:36:41;;;;;;;0.20;0.20;;;;;;;4.08;67.89;100930.16;5086297;28;20459;-84
2023/12/01 09:39:07;;;;;;;1.48;1.45;;;;;;;4.07;67.83;100927.53;5100838;28;20047;-84
2023/12/01 09:41:36;;;;;;;0.20;0.20;;;;;;;4.05;67.72;100933.66;5100686;28;20057;-83
2023/12/01 09:44:03;;;;;;;0.20;0.20;;;;;;;4.04;67.78;100941.50;5090481;28;20024;-84
2023/12/01 09:46:35;;;;;;;0.10;0.10;;;;;;;4.00;67.26;100939.69;5086356;28;20051;-84
2023/12/01 09:49:04;;;;;;;0.22;0.22;;;;;;;4.02;67.07;100943.22;5084590;28;20052;-84
2023/12/01 09:51:34;;;;;;;0.20;0.20;;;;;;;3.99;66.71;100946.69;5085482;28;20099;-84
2023/12/01 09:54:02;;;;;;;1.05;1.05;;;;;;;4.04;67.29;100946.75;5081225;28;20028;-84
2023/12/01 09:56:28;;;;;;;0.30;0.30;;;;;;;4.12;67.62;100947.66;5100517;28;20039;-84
2023/12/01 09:58:58;;;;;;;0.40;0.40;;;;;;;4.28;68.03;100945.19;5102228;28;20085;-85
2023/12/01 10:01:25;;;;;;;0.20;0.20;;;;;;;4.32;67.15;100939.09;5101819;28;20491;-84
2023/12/01 10:03:52;;;;;;;0.20;0.20;;;;;;;4.42;67.18;100946.16;5101185;28;20024;-84
2023/12/01 10:06:18;;;;;;;0.30;0.30;;;;;;;4.49;66.89;100954.97;5101882;28;20051;-84
2023/12/01 10:08:45;;;;;;;0.20;0.20;;;;;;;4.52;66.67;100945.38;5101400;28;20036;-84
2023/12/01 10:11:20;;;;;;;0.20;0.20;;;;;;;4.61;65.70;100938.41;5100806;28;20432;-84
2023/12/01 10:13:49;;;;;;;1.42;1.35;;;;;;;4.58;65.77;100943.63;5101211;28;20406;-84
2023/12/01 10:16:16;;;;;;;0.20;0.20;;;;;;;4.49;64.69;100940.06;5101744;28;20413;-85
2023/12/01 10:19:00;;;;;;;0.25;0.25;;;;;;;4.54;66.44;100943.59;5098830;28;20025;-85
2023/12/01 10:24:21;;;;;;;0.17;0.17;;;;;;;4.23;64.95;100942.53;5088707;27;20437;-81
2023/12/01 10:26:48;;;;;;;0.88;0.82;;;;;;;4.19;65.41;100946.84;5076380;28;20028;-81
2023/12/01 10:32:11;;;;;;;0.20;0.20;;;;;;;4.08;64.84;100948.53;5106416;27;1200931;-81
2023/12/01 10:34:37;;;;;;;0.38;0.38;;;;;;;4.00;64.71;100945.84;5124298;28;20032;-81
2023/12/01 10:37:04;;;;;;;0.40;0.40;;;;;;;3.92;64.11;100946.63;5120357;28;20042;-82
2023/12/01 10:39:30;;;;;;;0.20;0.20;;;;;;;3.85;63.94;100943.97;5108280;27;20377;-81
2023/12/01 10:41:57;;;;;;;0.20;0.20;;;;;;;3.87;64.96;100954.44;5096207;28;20024;-81
2023/12/01 10:44:25;;;;;;;0.55;0.55;;;;;;;3.80;64.60;100950.00;5095777;28;20039;-81
2023/12/01 10:46:54;;;;;;;1.10;0.77;;;;;;;3.79;64.84;100949.16;5095826;28;20027;-81
2023/12/01 10:49:22;;;;;;;0.30;0.30;;;;;;;3.73;64.64;100946.47;5095233;28;20069;-81
2023/12/01 10:51:56;;;;;;;0.20;0.20;;;;;;;3.67;64.70;100951.63;5095528;28;20095;-81
2023/12/01 10:54:24;;;;;;;0.25;0.25;;;;;;;3.62;64.71;100948.97;5093934;28;20398;-81
2023/12/01 10:57:26;;;;;;;0.25;0.25;;;;;;;3.76;65.49;100941.22;5095039;28;20499;-80
2023/12/01 10:59:54;;;;;;;1.33;1.23;;;;;;;3.79;65.57;100945.63;5111554;28;20028;-81
2023/12/01 11:02:23;;;;;;;0.20;0.20;;;;;;;3.95;66.42;100949.28;5117447;28;20067;-81
2023/12/01 11:04:49;;;;;;;0.20;0.20;;;;;;;4.04;65.27;100952.00;5102729;28;20123;-81
2023/12/01 11:15:27;;;;;;;0.20;0.20;;;;;;;4.48;64.10;100942.69;5117605;27;20600;-81
2023/12/01 11:17:55;;;;;;;0.35;0.35;;;;;;;4.51;63.17;100938.34;5119089;28;20032;-81
2023/12/01 11:20:42;;;;;;;0.20;0.20;;;;;;;4.71;63.39;100932.34;5120896;28;20555;-80
2023/12/01 11:25:50;;;;;;;0.20;0.20;;;;;;;4.50;63.34;100939.22;5129569;27;20398;-81
2023/12/01 11:28:22;;;;;;;3.40;1.13;;;;;;;4.41;63.57;100935.66;5130216;28;20038;-81
2023/12/01 11:34:13;;;;;;;1.05;1.05;;;;;;;4.42;63.98;100945.28;5129767;27;20392;-80
2023/12/01 11:36:49;;;;;;;0.20;0.20;;;;;;;4.52;63.39;100934.88;5119957;28;20028;-81
2023/12/01 11:39:20;;;;;;;0.20;0.20;;;;;;;4.60;63.32;100934.00;5115740;28;20086;-80
2023/12/01 11:41:49;;;;;;;0.20;0.20;;;;;;;4.81;63.53;100936.78;5116488;28;20024;-81
2023/12/01 11:44:18;;;;;;;0.57;0.57;;;;;;;4.99;63.45;100941.22;5106886;28;20054;-81
2023/12/01 11:46:47;;;;;;;0.40;0.40;;;;;;;5.16;63.72;100937.81;5103523;28;20089;-81
2023/12/01 11:49:16;;;;;;;0.20;0.20;;;;;;;5.26;63.66;100938.69;5100725;28;20103;-81
2023/12/01 11:51:43;;;;;;;0.20;0.20;;;;;;;5.31;63.34;100934.38;5102360;28;20043;-81
2023/12/01 11:54:11;;;;;;;0.10;0.10;;;;;;;5.24;61.44;100945.72;5101080;28;20081;-81
2023/12/01 11:56:39;;;;;;;0.20;0.20;;;;;;;5.14;61.95;100948.28;5099672;28;20153;-81
2023/12/01 11:59:08;;;;;;;0.20;0.20;;;;;;;5.16;63.20;100946.56;5099639;28;20028;-81